Time;durP1;ratioP1;P1;durP2;ratioP2;P2;SDS_P1;SDS_P2;PMS_P1;PMS_P2;Temp;Humidity;BMP_temperature;BMP_pressure;BME280_temperature;BME280_humidity;BME280_pressure;Samples;Min_cycle;Max_cycle;Signal;HPM_P1;HPM_P2
2022/01/09 00:00:13;;;;;;;28.88;18.38;;;3.90;99.90;;;;;;5050744;28;20117;-65
2022/01/09 00:02:40;;;;;;;26.13;17.50;;;3.90;99.90;;;;;;5050526;28;20091;-64
2022/01/09 00:05:06;;;;;;;31.05;18.45;;;3.90;99.90;;;;;;5048243;28;20071;-65
2022/01/09 00:07:32;;;;;;;29.65;18.25;;;3.90;99.90;;;;;;5049520;28;20411;-66
2022/01/09 00:09:57;;;;;;;29.50;18.67;;;3.90;99.90;;;;;;5050711;28;20097;-66
2022/01/09 00:12:24;;;;;;;35.28;19.92;;;3.90;99.90;;;;;;5050924;28;20048;-64
2022/01/09 00:14:50;;;;;;;30.25;18.92;;;3.90;99.90;;;;;;5048940;28;20120;-66
2022/01/09 00:17:16;;;;;;;35.45;19.10;;;3.90;99.90;;;;;;5050437;28;20062;-64
2022/01/09 00:19:41;;;;;;;29.50;18.98;;;3.90;99.90;;;;;;5049695;28;20036;-64
2022/01/09 00:22:07;;;;;;;36.10;20.30;;;3.90;99.90;;;;;;5048707;28;20041;-64
2022/01/09 00:24:33;;;;;;;33.83;18.60;;;3.90;99.90;;;;;;5048308;28;20455;-65
2022/01/09 00:26:59;;;;;;;38.72;18.00;;;3.90;99.90;;;;;;5049529;28;20415;-65
2022/01/09 00:29:24;;;;;;;28.73;18.48;;;3.90;99.90;;;;;;5051289;28;20087;-65
2022/01/09 00:31:50;;;;;;;33.35;18.40;;;3.90;99.90;;;;;;5051044;28;20052;-65
2022/01/09 00:34:16;;;;;;;29.75;18.60;;;3.90;99.90;;;;;;5049476;28;20124;-65
2022/01/09 00:36:42;;;;;;;32.35;20.30;;;3.90;99.90;;;;;;5049608;28;20142;-65
2022/01/09 00:39:07;;;;;;;35.83;19.63;;;3.90;99.90;;;;;;5047909;28;20483;-65
2022/01/09 00:41:33;;;;;;;30.85;19.10;;;3.90;99.90;;;;;;5049493;28;20479;-66
2022/01/09 00:43:59;;;;;;;31.17;18.70;;;3.90;99.90;;;;;;5032103;28;20051;-64
2022/01/09 00:46:25;;;;;;;30.05;18.73;;;3.90;99.90;;;;;;5050938;28;20084;-66
2022/01/09 00:48:50;;;;;;;31.20;18.38;;;3.90;99.90;;;;;;5049831;28;20065;-65
2022/01/09 00:51:16;;;;;;;34.55;18.40;;;3.90;99.90;;;;;;5047566;28;20041;-66
2022/01/09 00:53:42;;;;;;;28.95;18.15;;;3.90;99.90;;;;;;5047866;28;20040;-66
2022/01/09 00:56:07;;;;;;;28.17;17.92;;;3.90;99.90;;;;;;5043305;28;20475;-65
2022/01/09 00:58:33;;;;;;;34.78;19.65;;;3.90;99.90;;;;;;5050381;28;20465;-66
2022/01/09 01:00:59;;;;;;;35.95;18.90;;;3.90;99.90;;;;;;5049848;28;20044;-66
2022/01/09 01:03:25;;;;;;;32.33;18.98;;;3.90;99.90;;;;;;5049907;28;20037;-67
2022/01/09 01:05:51;;;;;;;29.33;18.15;;;3.90;99.90;;;;;;5048622;28;20045;-64
2022/01/09 01:08:18;;;;;;;28.67;16.75;;;3.90;99.90;;;;;;5045267;28;20118;-65
2022/01/09 01:10:44;;;;;;;34.25;18.95;;;3.90;99.90;;;;;;5049145;28;20083;-64
2022/01/09 01:13:09;;;;;;;33.65;19.17;;;3.90;99.90;;;;;;5050460;28;20041;-66
2022/01/09 01:15:35;;;;;;;32.67;19.65;;;3.90;99.90;;;;;;5030116;28;20041;-65
2022/01/09 01:18:01;;;;;;;34.22;19.80;;;3.90;99.90;;;;;;5048345;28;20045;-66
2022/01/09 01:20:28;;;;;;;37.00;20.23;;;3.90;99.90;;;;;;5031369;28;20041;-66
2022/01/09 01:22:57;;;;;;;43.35;20.60;;;3.90;99.90;;;;;;5049481;28;20136;-65
2022/01/09 01:25:23;;;;;;;30.15;18.23;;;3.90;99.90;;;;;;5039853;28;20041;-66
2022/01/09 01:27:48;;;;;;;35.28;20.83;;;3.90;99.90;;;;;;5049954;28;20040;-68
2022/01/09 01:30:15;;;;;;;43.72;21.70;;;3.90;99.90;;;;;;5053840;28;20106;-65
2022/01/09 01:32:42;;;;;;;42.00;21.83;;;3.90;99.90;;;;;;5053988;28;20047;-65
2022/01/09 01:35:09;;;;;;;31.80;19.67;;;3.90;99.90;;;;;;5052137;28;20114;-64
2022/01/09 01:37:38;;;;;;;44.78;22.33;;;4.00;99.90;;;;;;5049151;28;20406;-64
2022/01/09 01:40:09;;;;;;;51.05;22.67;;;3.90;99.90;;;;;;5053054;28;20041;-64
2022/01/09 01:42:34;;;;;;;82.05;27.15;;;3.90;99.90;;;;;;5049479;28;20041;-65
2022/01/09 01:45:00;;;;;;;56.00;23.35;;;4.00;99.90;;;;;;5052132;28;20394;-65
2022/01/09 01:47:26;;;;;;;37.03;21.15;;;4.00;99.90;;;;;;5050172;28;20037;-66
2022/01/09 01:49:52;;;;;;;44.42;22.48;;;3.90;99.90;;;;;;5053389;28;20041;-66
2022/01/09 01:52:27;;;;;;;38.28;21.70;;;4.00;99.90;;;;;;5051816;28;20048;-66
2022/01/09 01:54:52;;;;;;;52.70;23.95;;;4.00;99.90;;;;;;5052958;28;20048;-66
2022/01/09 01:57:18;;;;;;;47.05;21.40;;;4.00;99.90;;;;;;5053470;28;20041;-67
2022/01/09 01:59:44;;;;;;;39.80;21.45;;;4.00;99.90;;;;;;5053288;28;20041;-67
2022/01/09 02:02:09;;;;;;;68.90;24.38;;;4.00;99.90;;;;;;5034152;28;20041;-66
2022/01/09 02:04:35;;;;;;;45.35;22.83;;;4.00;99.90;;;;;;5053041;28;20045;-66
2022/01/09 02:07:02;;;;;;;43.50;22.63;;;4.00;99.90;;;;;;5048932;28;20029;-66
2022/01/09 02:09:28;;;;;;;79.80;26.65;;;4.00;99.90;;;;;;5046620;28;20033;-66
2022/01/09 02:11:54;;;;;;;40.55;21.50;;;4.00;99.90;;;;;;5051629;28;20103;-66
2022/01/09 02:14:19;;;;;;;54.67;24.15;;;4.00;99.90;;;;;;5065843;28;20159;-66
2022/01/09 02:16:48;;;;;;;75.57;25.90;;;4.00;99.90;;;;;;5052426;28;20617;-65
2022/01/09 02:19:15;;;;;;;93.90;28.42;;;4.00;99.90;;;;;;5047293;28;20385;-67
2022/01/09 02:21:42;;;;;;;79.70;27.73;;;4.00;99.90;;;;;;5048721;28;20128;-66
2022/01/09 02:24:08;;;;;;;43.22;22.88;;;4.00;99.90;;;;;;5051232;28;20053;-66
2022/01/09 02:26:34;;;;;;;61.83;24.73;;;4.00;99.90;;;;;;5050512;28;20068;-66
2022/01/09 02:28:59;;;;;;;77.13;27.60;;;4.10;99.90;;;;;;5052196;28;20060;-66
2022/01/09 02:31:25;;;;;;;54.50;24.60;;;4.10;99.90;;;;;;5052304;28;20480;-66
2022/01/09 02:33:51;;;;;;;90.05;27.70;;;4.10;99.90;;;;;;5034383;28;20143;-66
2022/01/09 02:36:17;;;;;;;50.20;22.55;;;4.10;99.90;;;;;;5051481;28;20546;-66
2022/01/09 02:38:43;;;;;;;95.40;27.67;;;4.10;99.90;;;;;;5051825;28;20449;-66
2022/01/09 02:41:08;;;;;;;50.05;23.05;;;4.10;99.90;;;;;;5051961;28;20087;-65
2022/01/09 02:43:34;;;;;;;62.17;23.98;;;4.20;99.90;;;;;;5052463;28;20048;-66
2022/01/09 02:46:14;;;;;;;51.63;22.10;;;4.20;99.90;;;;;;5052172;28;20055;-66
2022/01/09 02:48:40;;;;;;;45.92;20.90;;;4.20;99.90;;;;;;5048023;28;20111;-68
2022/01/09 02:51:13;;;;;;;63.63;23.02;;;4.20;99.90;;;;;;5050707;28;20098;-67
2022/01/09 02:53:40;;;;;;;46.38;19.05;;;4.20;99.90;;;;;;5051678;28;20045;-65
2022/01/09 02:56:07;;;;;;;36.00;16.48;;;4.30;99.90;;;;;;5048601;28;20099;-64
2022/01/09 02:58:34;;;;;;;32.08;13.95;;;4.30;99.90;;;;;;5051700;28;20073;-65
2022/01/09 03:01:00;;;;;;;34.08;13.85;;;4.30;99.90;;;;;;5051120;28;20041;-65
2022/01/09 03:03:26;;;;;;;25.40;11.38;;;4.40;99.90;;;;;;5051117;28;20036;-65
2022/01/09 03:05:52;;;;;;;33.15;11.48;;;4.40;99.90;;;;;;5051639;28;20124;-64
2022/01/09 03:08:18;;;;;;;24.58;11.15;;;4.50;99.90;;;;;;5052398;28;20041;-64
2022/01/09 03:10:44;;;;;;;36.63;11.00;;;4.50;99.90;;;;;;5048419;28;20510;-64
2022/01/09 03:13:09;;;;;;;29.08;8.90;;;4.60;99.90;;;;;;5050356;28;20406;-64
2022/01/09 03:15:35;;;;;;;19.33;7.40;;;4.60;99.90;;;;;;5049458;28;20403;-66
2022/01/09 03:18:01;;;;;;;16.13;5.47;;;4.70;99.90;;;;;;5049883;28;20099;-65
2022/01/09 03:20:28;;;;;;;22.77;6.43;;;4.80;99.90;;;;;;5048045;28;20560;-65
2022/01/09 03:22:55;;;;;;;29.45;6.20;;;4.80;99.90;;;;;;5049085;28;20110;-65
2022/01/09 03:25:25;;;;;;;28.13;6.20;;;4.80;99.90;;;;;;5051268;28;20048;-65
2022/01/09 03:27:52;;;;;;;26.92;6.45;;;4.80;99.90;;;;;;5050862;28;20041;-65
2022/01/09 03:30:20;;;;;;;39.30;6.65;;;4.80;99.90;;;;;;5050199;28;20120;-65
2022/01/09 03:32:48;;;;;;;37.92;6.88;;;4.90;99.90;;;;;;5045663;28;20110;-64
2022/01/09 03:35:15;;;;;;;31.30;6.68;;;4.90;99.90;;;;;;5050388;28;20048;-65
2022/01/09 03:37:43;;;;;;;32.50;6.75;;;5.00;99.90;;;;;;5051631;28;20049;-65
2022/01/09 03:40:13;;;;;;;33.00;7.32;;;4.90;99.90;;;;;;5051243;28;20037;-65
2022/01/09 03:42:39;;;;;;;29.20;6.68;;;5.00;99.90;;;;;;5050816;28;20041;-65
2022/01/09 03:45:06;;;;;;;28.60;7.07;;;5.00;99.90;;;;;;5050188;28;20041;-64
2022/01/09 03:47:32;;;;;;;31.95;5.40;;;5.10;99.90;;;;;;5047505;28;20045;-65
2022/01/09 03:49:58;;;;;;;41.33;7.28;;;5.10;99.90;;;;;;5049960;28;20120;-67
2022/01/09 03:52:27;;;;;;;36.67;6.10;;;5.20;99.90;;;;;;5050550;28;20053;-65
2022/01/09 03:54:54;;;;;;;39.85;5.55;;;5.10;99.90;;;;;;5050652;28;20076;-65
2022/01/09 03:57:20;;;;;;;33.10;5.15;;;5.10;99.90;;;;;;5051536;28;20047;-65
2022/01/09 03:59:46;;;;;;;32.05;5.38;;;5.20;99.90;;;;;;5047976;28;20111;-65
2022/01/09 04:02:11;;;;;;;29.55;4.47;;;5.10;99.90;;;;;;5050183;28;20061;-64
2022/01/09 04:04:37;;;;;;;40.60;5.13;;;5.20;99.90;;;;;;5050076;28;20489;-64
2022/01/09 04:07:03;;;;;;;29.63;4.75;;;5.20;99.90;;;;;;5050926;28;20039;-65
2022/01/09 04:09:38;;;;;;;35.65;5.63;;;5.20;99.90;;;;;;5050287;28;20048;-65
2022/01/09 04:12:31;;;;;;;53.10;5.97;;;5.30;99.90;;;;;;5051531;28;20055;-64
2022/01/09 04:14:56;;;;;;;52.92;6.75;;;5.20;99.90;;;;;;5030599;28;20276;-65
2022/01/09 04:17:37;;;;;;;57.45;6.85;;;5.20;99.90;;;;;;5049134;28;20114;-64
2022/01/09 04:20:05;;;;;;;54.65;9.30;;;5.30;99.90;;;;;;5051978;28;20049;-66
2022/01/09 04:22:31;;;;;;;82.78;7.22;;;5.30;99.90;;;;;;5050976;28;20076;-65
2022/01/09 04:24:57;;;;;;;81.22;8.15;;;5.30;99.90;;;;;;5051698;28;20084;-65
2022/01/09 04:27:22;;;;;;;63.65;7.55;;;5.40;99.90;;;;;;5050959;28;20056;-64
2022/01/09 04:29:48;;;;;;;63.00;8.30;;;5.40;99.90;;;;;;5050096;28;20059;-64
2022/01/09 04:32:14;;;;;;;57.53;6.32;;;5.50;99.90;;;;;;5046943;28;20140;-66
2022/01/09 04:34:39;;;;;;;53.38;6.82;;;5.60;99.90;;;;;;5050626;28;20037;-64
2022/01/09 04:37:05;;;;;;;57.17;7.65;;;5.50;99.90;;;;;;5051400;28;20067;-63
2022/01/09 04:39:31;;;;;;;69.30;7.32;;;5.60;99.90;;;;;;5049568;28;20041;-66
2022/01/09 04:41:57;;;;;;;46.80;7.13;;;5.60;99.90;;;;;;5050595;28;20047;-66
2022/01/09 04:44:24;;;;;;;42.42;6.25;;;5.50;99.90;;;;;;5048055;28;20041;-66
2022/01/09 04:47:04;;;;;;;40.10;5.47;;;5.60;99.90;;;;;;5051144;28;20045;-65
2022/01/09 04:49:39;;;;;;;49.58;7.40;;;5.60;99.90;;;;;;5049168;28;20497;-64
2022/01/09 04:52:07;;;;;;;61.42;6.85;;;5.60;99.90;;;;;;5048886;28;20049;-65
2022/01/09 04:54:33;;;;;;;58.60;6.43;;;5.60;99.90;;;;;;5049687;28;20048;-65
2022/01/09 04:57:01;;;;;;;54.03;6.55;;;5.60;99.90;;;;;;5050251;28;20041;-64
2022/01/09 04:59:28;;;;;;;68.93;7.55;;;5.70;99.90;;;;;;5050764;28;20045;-65
2022/01/09 05:01:54;;;;;;;48.10;7.15;;;5.80;99.90;;;;;;5051533;28;20505;-64
2022/01/09 05:04:20;;;;;;;49.88;6.28;;;5.70;99.90;;;;;;5055807;28;20060;-64
2022/01/09 05:06:45;;;;;;;47.85;6.68;;;5.70;99.90;;;;;;5053211;28;20047;-64
2022/01/09 05:09:11;;;;;;;47.70;5.43;;;5.70;99.90;;;;;;5054807;28;20030;-65
2022/01/09 05:11:37;;;;;;;38.97;5.60;;;5.70;99.90;;;;;;5054800;28;20402;-64
2022/01/09 05:14:03;;;;;;;42.22;6.25;;;5.70;99.90;;;;;;5049087;28;20040;-63
2022/01/09 05:16:29;;;;;;;51.60;5.90;;;5.70;99.90;;;;;;5054829;28;20376;-64
2022/01/09 05:18:58;;;;;;;46.65;5.80;;;5.70;99.90;;;;;;5054360;28;20033;-64
2022/01/09 05:21:24;;;;;;;47.08;5.80;;;5.60;99.90;;;;;;5053793;28;20049;-66
2022/01/09 05:23:49;;;;;;;49.70;6.50;;;5.70;99.90;;;;;;5055327;28;20069;-64
2022/01/09 05:26:15;;;;;;;50.38;6.32;;;5.60;99.90;;;;;;5054537;28;20048;-64
2022/01/09 05:28:41;;;;;;;38.45;5.45;;;5.60;99.90;;;;;;5053562;28;20053;-64
2022/01/09 05:31:07;;;;;;;35.95;5.50;;;5.60;99.90;;;;;;5054171;28;20048;-64
2022/01/09 05:33:32;;;;;;;44.03;6.72;;;5.60;99.90;;;;;;5052791;28;20043;-65
2022/01/09 05:35:58;;;;;;;38.47;5.93;;;5.70;99.90;;;;;;5054301;28;20049;-65
2022/01/09 05:38:24;;;;;;;43.10;6.05;;;5.60;99.90;;;;;;5053674;28;20037;-65
2022/01/09 05:40:49;;;;;;;41.13;5.28;;;5.60;99.90;;;;;;5054495;28;20452;-66
2022/01/09 05:43:15;;;;;;;43.90;5.75;;;5.60;99.90;;;;;;5052424;28;20688;-65
2022/01/09 05:45:41;;;;;;;40.60;5.05;;;5.60;99.90;;;;;;5054694;28;20048;-66
2022/01/09 05:48:07;;;;;;;40.80;6.18;;;5.60;99.90;;;;;;5049105;28;20069;-65
2022/01/09 05:50:34;;;;;;;36.78;7.00;;;5.60;99.90;;;;;;5054534;28;20037;-64
2022/01/09 05:52:59;;;;;;;47.80;4.78;;;5.60;99.90;;;;;;5060940;28;20045;-64
2022/01/09 05:55:26;;;;;;;42.60;4.90;;;5.60;99.90;;;;;;5054442;28;20033;-64
2022/01/09 05:57:51;;;;;;;35.35;4.57;;;5.60;99.90;;;;;;5053345;28;20045;-64
2022/01/09 06:00:17;;;;;;;34.88;5.07;;;5.50;99.90;;;;;;5036018;28;20441;-66
2022/01/09 06:02:42;;;;;;;32.95;3.92;;;5.50;99.90;;;;;;5053312;28;20597;-64
2022/01/09 06:05:09;;;;;;;45.03;5.35;;;5.50;99.90;;;;;;5052927;28;20491;-65
2022/01/09 06:07:39;;;;;;;28.35;4.30;;;5.50;99.90;;;;;;5047967;28;20037;-65
2022/01/09 06:10:05;;;;;;;28.48;4.28;;;5.40;99.90;;;;;;5052600;28;20037;-65
2022/01/09 06:12:31;;;;;;;33.60;4.78;;;5.40;99.90;;;;;;5036207;28;20048;-64
2022/01/09 06:14:56;;;;;;;33.25;4.75;;;5.40;99.90;;;;;;5067942;28;20479;-64
2022/01/09 06:17:22;;;;;;;27.85;4.90;;;5.40;99.90;;;;;;5053875;28;20064;-65
2022/01/09 06:19:47;;;;;;;29.77;4.57;;;5.40;99.90;;;;;;5053055;28;20425;-65
2022/01/09 06:22:18;;;;;;;36.15;4.35;;;5.40;99.90;;;;;;5053164;28;20029;-64
2022/01/09 06:24:47;;;;;;;28.05;3.85;;;5.40;99.90;;;;;;5052327;28;20569;-65
2022/01/09 06:27:15;;;;;;;43.47;4.10;;;5.40;99.90;;;;;;5053208;28;20041;-64
2022/01/09 06:29:41;;;;;;;;;;;5.40;99.90;;;;;;5053410;28;20037;-64
2022/01/09 06:32:07;;;;;;;31.55;4.65;;;5.40;99.90;;;;;;5051461;28;19924;-64
2022/01/09 06:34:33;;;;;;;37.08;4.25;;;5.30;99.90;;;;;;5049892;28;20487;-64
2022/01/09 06:36:58;;;;;;;42.80;5.20;;;5.30;99.90;;;;;;5050596;28;20115;-64
2022/01/09 06:39:24;;;;;;;30.70;4.53;;;5.30;99.90;;;;;;5046498;28;20033;-65
2022/01/09 06:41:50;;;;;;;33.03;4.47;;;5.30;99.90;;;;;;5051944;28;20037;-64
2022/01/09 06:44:16;;;;;;;35.30;5.55;;;5.30;99.90;;;;;;5052470;28;20098;-64
2022/01/09 06:46:42;;;;;;;37.78;4.82;;;5.30;99.90;;;;;;5052220;28;20052;-64
2022/01/09 06:49:07;;;;;;;31.50;4.07;;;5.30;99.90;;;;;;5051887;28;20044;-67
2022/01/09 06:51:33;;;;;;;35.47;4.25;;;5.30;99.90;;;;;;5050982;28;20036;-64
2022/01/09 06:53:59;;;;;;;24.58;3.55;;;5.30;99.90;;;;;;5052779;28;20387;-65
2022/01/09 06:56:24;;;;;;;33.80;4.07;;;5.30;99.90;;;;;;5050575;28;20045;-63
2022/01/09 06:58:50;;;;;;;28.48;4.30;;;5.30;99.90;;;;;;5046193;28;20076;-64
2022/01/09 07:01:16;;;;;;;36.22;4.47;;;5.20;99.90;;;;;;5052446;28;20037;-64
2022/01/09 07:03:41;;;;;;;40.88;4.80;;;5.20;99.90;;;;;;5048388;28;20139;-63
2022/01/09 07:06:07;;;;;;;39.53;4.90;;;5.20;99.90;;;;;;5046432;28;20405;-64
2022/01/09 07:08:34;;;;;;;32.20;3.63;;;5.20;99.90;;;;;;5051576;28;20045;-64
2022/01/09 07:11:00;;;;;;;34.90;4.63;;;5.20;99.90;;;;;;5052851;28;20107;-65
2022/01/09 07:13:26;;;;;;;30.15;4.65;;;5.20;99.90;;;;;;5052700;28;20136;-63
2022/01/09 07:15:52;;;;;;;31.17;3.95;;;5.20;99.90;;;;;;5049982;28;20141;-64
2022/01/09 07:18:17;;;;;;;37.78;4.82;;;5.20;99.90;;;;;;5052438;28;20049;-65
2022/01/09 07:20:43;;;;;;;35.17;4.47;;;5.20;99.90;;;;;;5052242;28;20403;-64
2022/01/09 07:23:09;;;;;;;33.63;3.83;;;5.20;99.90;;;;;;5050962;28;20036;-66
2022/01/09 07:25:35;;;;;;;28.65;3.90;;;5.10;99.90;;;;;;5051770;28;20119;-64
2022/01/09 07:28:02;;;;;;;30.92;3.95;;;5.10;99.90;;;;;;5051685;28;20041;-64
2022/01/09 07:30:28;;;;;;;34.28;4.40;;;5.10;99.90;;;;;;5050599;28;20103;-64
2022/01/09 07:32:54;;;;;;;23.67;3.42;;;5.10;99.90;;;;;;5050251;28;20110;-65
2022/01/09 07:35:20;;;;;;;24.42;4.20;;;5.10;99.90;;;;;;5050047;28;20127;-64
2022/01/09 07:37:46;;;;;;;26.60;3.55;;;5.10;99.90;;;;;;5048985;28;20135;-65
2022/01/09 07:40:12;;;;;;;32.85;3.65;;;5.00;99.90;;;;;;5052842;28;20562;-65
2022/01/09 07:42:38;;;;;;;38.15;4.38;;;5.00;99.90;;;;;;5050808;28;20446;-64
2022/01/09 07:45:08;;;;;;;27.63;3.92;;;5.00;99.90;;;;;;5052288;28;20037;-64
2022/01/09 07:47:35;;;;;;;20.05;3.97;;;5.00;99.90;;;;;;5050946;28;20056;-63
2022/01/09 07:50:01;;;;;;;21.83;3.67;;;5.00;99.90;;;;;;5051544;28;20417;-64
2022/01/09 07:52:27;;;;;;;23.17;4.13;;;5.00;99.90;;;;;;5050036;28;20087;-64
2022/01/09 07:54:52;;;;;;;19.05;3.45;;;5.00;99.90;;;;;;5050842;28;20475;-63
2022/01/09 07:57:18;;;;;;;27.88;4.35;;;5.00;99.90;;;;;;5044962;28;20048;-63
2022/01/09 07:59:44;;;;;;;30.60;3.92;;;4.90;99.90;;;;;;5051005;28;20041;-63
2022/01/09 08:02:10;;;;;;;24.85;3.97;;;4.90;99.90;;;;;;5051307;28;20045;-65
2022/01/09 08:04:36;;;;;;;24.83;4.55;;;5.00;99.90;;;;;;5049311;28;20040;-63
2022/01/09 08:07:01;;;;;;;30.33;4.88;;;4.90;99.90;;;;;;5051384;28;20041;-65
2022/01/09 08:09:27;;;;;;;23.73;3.38;;;4.90;99.90;;;;;;5052563;28;20040;-65
2022/01/09 08:11:53;;;;;;;33.55;4.53;;;4.90;99.90;;;;;;5051593;28;20072;-64
2022/01/09 08:14:18;;;;;;;31.20;3.90;;;4.90;99.90;;;;;;5050416;28;20120;-63
2022/01/09 08:16:44;;;;;;;25.60;3.67;;;4.80;99.90;;;;;;5051835;28;20041;-64
2022/01/09 08:19:10;;;;;;;25.85;3.30;;;4.80;99.90;;;;;;5050527;28;20514;-65
2022/01/09 08:21:36;;;;;;;16.83;3.03;;;4.80;99.90;;;;;;5051283;28;20049;-64
2022/01/09 08:24:02;;;;;;;25.75;3.92;;;4.80;99.90;;;;;;5050516;28;20178;-64
2022/01/09 08:26:27;;;;;;;21.35;2.75;;;4.80;99.90;;;;;;5050222;28;22024;-63
2022/01/09 08:28:54;;;;;;;22.98;3.63;;;4.80;99.90;;;;;;5050625;28;20087;-64
2022/01/09 08:31:21;;;;;;;18.10;3.60;;;4.80;99.90;;;;;;5051830;28;20052;-64
2022/01/09 08:33:47;;;;;;;19.40;3.28;;;4.80;99.90;;;;;;5049182;28;20091;-63
2022/01/09 08:36:13;;;;;;;29.58;3.97;;;4.80;99.90;;;;;;5050817;28;20077;-63
2022/01/09 08:38:39;;;;;;;26.77;3.55;;;4.80;99.90;;;;;;5050514;28;20052;-64
2022/01/09 08:41:05;;;;;;;24.77;3.42;;;4.80;99.90;;;;;;5032318;28;20045;-63
2022/01/09 08:43:33;;;;;;;27.38;3.83;;;4.80;99.90;;;;;;5042410;28;20052;-65
2022/01/09 08:45:59;;;;;;;;;;;4.80;99.90;;;;;;5038654;28;20384;-64
2022/01/09 08:48:25;;;;;;;23.23;3.03;;;4.80;99.90;;;;;;5052768;28;20022;-64
2022/01/09 08:50:50;;;;;;;20.77;3.40;;;4.80;99.90;;;;;;5048177;28;20048;-64
2022/01/09 08:53:16;;;;;;;19.08;3.55;;;4.80;99.90;;;;;;5031345;28;20761;-65
2022/01/09 08:55:42;;;;;;;20.75;3.63;;;4.80;99.90;;;;;;5049688;28;20041;-63
2022/01/09 08:58:08;;;;;;;19.98;3.20;;;4.80;99.90;;;;;;5047440;28;20060;-66
2022/01/09 09:00:34;;;;;;;23.33;2.80;;;4.80;99.90;;;;;;5052402;28;20037;-65
2022/01/09 09:02:59;;;;;;;24.60;2.88;;;4.80;99.90;;;;;;5048459;28;20046;-65
2022/01/09 09:05:25;;;;;;;24.75;3.60;;;4.80;99.90;;;;;;5042072;28;20447;-64
2022/01/09 09:07:50;;;;;;;23.92;3.22;;;4.90;99.90;;;;;;5046010;28;20498;-64
2022/01/09 09:10:16;;;;;;;20.83;3.70;;;4.90;99.90;;;;;;5049271;28;20059;-64
2022/01/09 09:12:42;;;;;;;24.10;3.22;;;5.00;99.90;;;;;;5047429;28;20041;-65
2022/01/09 09:15:08;;;;;;;26.67;4.22;;;4.90;99.90;;;;;;5045084;28;20395;-64
2022/01/09 09:17:34;;;;;;;22.95;3.47;;;4.90;99.90;;;;;;5050518;28;20037;-64
2022/01/09 09:20:01;;;;;;;20.80;3.28;;;4.90;99.90;;;;;;5050658;28;20043;-65
2022/01/09 09:22:26;;;;;;;30.50;3.80;;;4.90;99.90;;;;;;5049762;28;20101;-65
2022/01/09 09:24:52;;;;;;;24.50;3.03;;;5.00;99.90;;;;;;5049950;28;20123;-65
2022/01/09 09:27:19;;;;;;;19.45;3.35;;;5.00;99.90;;;;;;5050207;28;20107;-65
2022/01/09 09:29:45;;;;;;;19.10;3.78;;;5.00;99.90;;;;;;5045726;28;20129;-65
2022/01/09 09:32:13;;;;;;;24.42;3.40;;;5.00;99.90;;;;;;5046139;28;20052;-64
2022/01/09 09:34:39;;;;;;;22.50;3.22;;;5.10;99.90;;;;;;5047132;28;20055;-65
2022/01/09 09:37:06;;;;;;;16.73;2.75;;;5.10;99.90;;;;;;5049460;28;20037;-64
2022/01/09 09:39:32;;;;;;;14.80;2.78;;;5.10;99.90;;;;;;5050322;28;20037;-64
2022/01/09 09:42:01;;;;;;;12.85;2.97;;;5.10;99.90;;;;;;5046804;28;20526;-64
2022/01/09 09:44:26;;;;;;;19.33;3.22;;;5.10;99.90;;;;;;5045006;28;20044;-65
2022/01/09 09:46:53;;;;;;;16.92;2.55;;;5.10;99.90;;;;;;5049663;28;20379;-63
2022/01/09 09:49:20;;;;;;;18.02;2.63;;;5.20;99.90;;;;;;5047315;28;20059;-65
2022/01/09 09:51:46;;;;;;;25.17;3.70;;;5.20;99.90;;;;;;5053530;28;20049;-65
2022/01/09 09:54:12;;;;;;;19.88;3.40;;;5.20;99.90;;;;;;5055036;28;20040;-64
2022/01/09 09:56:38;;;;;;;12.07;2.40;;;5.30;99.90;;;;;;5053289;28;20053;-66
2022/01/09 09:59:03;;;;;;;15.60;2.47;;;5.30;99.90;;;;;;5051931;28;20041;-63
2022/01/09 10:01:34;;;;;;;10.95;2.22;;;5.20;99.90;;;;;;5054663;28;20043;-65
2022/01/09 10:04:03;;;;;;;14.15;2.28;;;5.20;99.90;;;;;;5052599;28;20483;-64
2022/01/09 10:06:43;;;;;;;17.58;2.80;;;5.20;99.90;;;;;;5052935;28;20077;-65
2022/01/09 10:09:16;;;;;;;17.30;2.78;;;5.30;99.90;;;;;;5052496;28;20698;-64
2022/01/09 10:11:55;;;;;;;15.13;2.95;;;5.30;99.90;;;;;;5052521;28;20041;-65
2022/01/09 10:14:30;;;;;;;22.27;2.95;;;5.40;99.90;;;;;;5053976;28;20045;-63
2022/01/09 10:17:12;;;;;;;13.60;2.58;;;5.30;99.90;;;;;;5053285;28;20175;-64
2022/01/09 10:19:55;;;;;;;21.35;2.85;;;5.30;99.90;;;;;;5054532;28;20048;-63
2022/01/09 10:22:22;;;;;;;15.60;2.25;;;5.40;99.90;;;;;;5050188;28;20102;-64
2022/01/09 10:24:48;;;;;;;18.08;2.90;;;5.30;99.90;;;;;;5053803;28;20124;-64
2022/01/09 10:27:34;;;;;;;17.70;3.05;;;5.30;99.90;;;;;;5053806;28;20049;-67
2022/01/09 10:30:01;;;;;;;15.10;3.20;;;5.30;99.90;;;;;;5052556;28;20041;-65
2022/01/09 10:32:28;;;;;;;15.38;3.20;;;5.40;99.90;;;;;;5052843;28;20048;-64
2022/01/09 10:35:06;;;;;;;12.02;2.33;;;5.40;99.90;;;;;;5047745;28;20106;-65
2022/01/09 10:37:32;;;;;;;15.52;3.00;;;5.40;99.90;;;;;;5048032;28;20042;-64
2022/01/09 10:40:00;;;;;;;14.35;3.17;;;5.40;99.90;;;;;;5040884;28;20045;-67
2022/01/09 10:42:27;;;;;;;20.95;3.08;;;5.40;99.90;;;;;;5051675;28;20520;-64
2022/01/09 10:44:53;;;;;;;17.88;2.70;;;5.60;99.90;;;;;;5053515;28;20096;-64
2022/01/09 10:47:18;;;;;;;11.48;2.22;;;5.40;99.90;;;;;;5050444;28;20040;-64
2022/01/09 10:49:47;;;;;;;24.65;3.05;;;5.40;99.90;;;;;;5051914;28;20037;-65
2022/01/09 10:52:21;;;;;;;;;;;5.40;99.90;;;;;;5053691;28;20438;-64
2022/01/09 10:54:48;;;;;;;26.05;3.15;;;5.40;99.90;;;;;;5068062;28;19927;-66
2022/01/09 10:57:23;;;;;;;27.40;3.30;;;5.40;99.90;;;;;;5050563;28;20397;-64
2022/01/09 10:59:50;;;;;;;18.17;3.22;;;5.40;99.90;;;;;;5052344;28;20411;-64
2022/01/09 11:02:17;;;;;;;15.65;2.78;;;5.40;99.90;;;;;;5052441;28;20506;-65
2022/01/09 11:04:45;;;;;;;22.17;4.07;;;5.50;99.90;;;;;;5052320;28;20037;-64
2022/01/09 11:07:11;;;;;;;20.75;3.13;;;5.40;99.90;;;;;;5054975;28;20048;-64
2022/01/09 11:09:44;;;;;;;14.60;2.45;;;5.40;99.90;;;;;;5052473;28;20120;-64
2022/01/09 11:12:10;;;;;;;18.55;2.55;;;5.40;99.90;;;;;;5050033;28;20048;-66
2022/01/09 11:14:40;;;;;;;10.07;2.80;;;5.40;99.90;;;;;;5052736;28;20505;-65
2022/01/09 11:17:08;;;;;;;17.20;3.08;;;5.40;99.90;;;;;;5052389;28;20396;-65
2022/01/09 11:19:34;;;;;;;15.70;2.90;;;5.40;99.90;;;;;;5051470;28;20037;-63
2022/01/09 11:22:03;;;;;;;15.45;3.22;;;5.50;99.90;;;;;;5050667;28;20094;-68
2022/01/09 11:25:06;;;;;;;13.50;2.97;;;5.50;99.90;;;;;;5051758;28;20053;-65
2022/01/09 11:27:32;;;;;;;12.90;3.05;;;5.50;99.90;;;;;;5051730;28;20065;-64
2022/01/09 11:30:10;;;;;;;17.60;2.90;;;5.50;99.90;;;;;;5052248;28;20044;-64
2022/01/09 11:32:56;;;;;;;20.48;3.03;;;5.60;99.90;;;;;;5053739;28;20037;-65
2022/01/09 11:35:40;;;;;;;17.13;2.50;;;5.60;99.90;;;;;;5050476;28;20057;-65
2022/01/09 11:38:45;;;;;;;19.35;3.05;;;5.60;99.90;;;;;;5051513;28;20067;-67
2022/01/09 11:41:23;;;;;;;14.18;2.92;;;5.70;99.90;;;;;;5052803;28;20040;-66
2022/01/09 11:43:57;;;;;;;19.20;3.42;;;5.70;99.90;;;;;;5054184;28;20041;-64
2022/01/09 11:46:25;;;;;;;12.15;2.65;;;5.80;99.90;;;;;;5068835;28;20447;-66
2022/01/09 11:48:50;;;;;;;12.43;2.20;;;5.80;99.90;;;;;;5050379;28;20045;-67
2022/01/09 11:51:37;;;;;;;27.35;3.40;;;5.90;99.90;;;;;;5050871;28;20041;-65
2022/01/09 11:54:08;;;;;;;24.55;2.78;;;5.90;99.90;;;;;;5052865;28;20061;-66
2022/01/09 11:57:08;;;;;;;15.27;3.40;;;5.90;99.90;;;;;;5052545;28;20426;-65
2022/01/09 11:59:45;;;;;;;18.08;3.05;;;5.90;99.90;;;;;;5051787;28;20087;-66
2022/01/09 12:02:17;;;;;;;18.40;2.83;;;6.00;99.90;;;;;;5052220;28;20060;-66
2022/01/09 12:04:42;;;;;;;18.48;3.10;;;6.00;99.90;;;;;;5052253;28;20048;-64
2022/01/09 12:07:12;;;;;;;24.50;3.25;;;6.10;99.90;;;;;;5052515;28;20049;-65
2022/01/09 12:09:45;;;;;;;10.77;2.30;;;6.20;99.90;;;;;;5052069;28;20106;-66
2022/01/09 12:12:17;;;;;;;14.75;2.67;;;6.30;99.90;;;;;;5052380;28;20037;-65
2022/01/09 12:14:53;;;;;;;22.02;3.35;;;6.40;99.90;;;;;;5048683;28;20045;-66
2022/01/09 12:17:26;;;;;;;25.58;3.15;;;6.50;99.90;;;;;;5048477;28;20364;-65
2022/01/09 12:20:09;;;;;;;14.73;2.75;;;6.50;99.90;;;;;;5048398;28;20064;-64
2022/01/09 12:23:04;;;;;;;13.38;2.47;;;6.50;99.90;;;;;;5048444;28;20380;-65
2022/01/09 12:25:35;;;;;;;18.73;3.03;;;6.60;99.90;;;;;;5048749;28;20049;-65
2022/01/09 12:28:14;;;;;;;19.73;2.95;;;6.60;99.90;;;;;;5051021;28;20092;-64
2022/01/09 12:30:43;;;;;;;20.83;2.85;;;6.60;99.90;;;;;;5049072;28;20048;-67
2022/01/09 12:33:20;;;;;;;19.90;2.38;;;6.60;99.90;;;;;;5051789;28;20087;-65
2022/01/09 12:36:06;;;;;;;15.20;2.78;;;6.70;99.90;;;;;;5059716;28;20088;-66
2022/01/09 12:38:56;;;;;;;11.85;2.60;;;6.70;99.90;;;;;;5048721;28;20064;-66
2022/01/09 12:41:32;;;;;;;19.15;2.80;;;6.70;99.90;;;;;;5050612;28;20509;-65
2022/01/09 12:44:06;;;;;;;18.90;2.97;;;6.70;99.90;;;;;;5052103;28;20033;-65
2022/01/09 12:46:33;;;;;;;17.45;2.97;;;6.70;99.90;;;;;;5052317;28;20095;-65
2022/01/09 12:49:07;;;;;;;19.65;3.35;;;6.70;99.90;;;;;;5051152;28;20041;-66